WMKP/PEN METAR and TAF weather

Enter ICAO airport designator
Station Type Date Time Source
WMKP METAR 2021/03/09 09:30 UTC NOAA

WMKP 090930Z 26006KT 220V320 9999 FEW020 33/22 Q1008 NOSIG


Station Type Date Time Source
WMKP Decoded METAR 2021/03/09 09:30 UTC NOAA

Penang / Bayan Lepas, Malaysia (WMKP) 05-18N 100-16E 4M
Mar 09, 2021 - 04:30 AM EST / 2021.03.09 0930 UTC
Wind: from the W (260 degrees) at 7 MPH (6 KT) (direction variable):0
Visibility: greater than 7 mile(s):0
Sky conditions: mostly clear
Temperature: 91 F (33 C)
Heat index: 97.5 F (36.4 C):1
Dew Point: 71 F (22 C)
Relative Humidity: 52%
Pressure (altimeter): 29.77 in. Hg (1008 hPa)
ob: WMKP 090930Z 26006KT 220V320 9999 FEW020 33/22 Q1008 NOSIG
cycle: 9

Station Type Date Time Source
WMKP TAF 2021/03/09 06:09 UTC NOAA

TAF WMKP 090500Z 0906/1006 22010KT 9999 FEW020
BECMG 0912/0914 VRB03KT 8000 FEW025
BECMG 0918/0920 03006KT

Example: see airport list